Time;durP1;ratioP1;P1;durP2;ratioP2;P2;SDS_P1;SDS_P2;PMS_P1;PMS_P2;Temp;Humidity;BMP_temperature;BMP_pressure;BME280_temperature;BME280_humidity;BME280_pressure;Samples;Min_cycle;Max_cycle;Signal;HPM_P1;HPM_P2
2022/01/10 00:00:28;;;;;;;18.87;17.07;;;2.40;99.90;;;;;;5055042;28;20848;-79
2022/01/10 00:02:56;;;;;;;18.37;16.90;;;2.40;99.90;;;;;;5084022;28;20427;-79
2022/01/10 00:05:24;;;;;;;16.93;15.63;;;2.40;99.90;;;;;;5085288;28;20479;-79
2022/01/10 00:07:51;;;;;;;18.47;16.87;;;2.30;99.90;;;;;;5079677;28;20442;-79
2022/01/10 00:10:19;;;;;;;18.30;16.73;;;2.30;99.90;;;;;;5083996;28;20437;-79
2022/01/10 00:12:46;;;;;;;18.67;16.97;;;2.30;99.90;;;;;;5072706;28;20442;-78
2022/01/10 00:15:16;;;;;;;19.53;17.73;;;2.30;99.90;;;;;;5082836;28;20436;-80
2022/01/10 00:17:44;;;;;;;18.57;16.87;;;2.30;99.90;;;;;;5081755;28;20467;-79
2022/01/10 00:20:15;;;;;;;18.43;16.57;;;2.30;99.90;;;;;;5082183;28;20437;-80
2022/01/10 00:22:45;;;;;;;18.83;17.20;;;2.20;99.90;;;;;;5082493;28;20476;-79
2022/01/10 00:25:13;;;;;;;19.27;17.70;;;2.20;99.90;;;;;;5070310;28;20534;-79
2022/01/10 00:27:40;;;;;;;18.73;16.97;;;2.20;99.90;;;;;;5081000;28;20433;-79
2022/01/10 00:30:09;;;;;;;18.67;16.97;;;2.20;99.90;;;;;;5071383;28;20447;-78
2022/01/10 00:32:36;;;;;;;18.27;16.77;;;2.30;99.90;;;;;;5080253;28;20845;-77
2022/01/10 00:35:05;;;;;;;18.70;17.07;;;2.20;99.90;;;;;;5079814;28;20431;-79
2022/01/10 00:37:33;;;;;;;18.70;17.10;;;2.20;99.90;;;;;;5079450;28;20443;-80
2022/01/10 00:40:00;;;;;;;18.27;16.87;;;2.30;99.90;;;;;;5071951;28;20451;-78
2022/01/10 00:42:27;;;;;;;19.00;17.40;;;2.30;99.90;;;;;;5083029;28;20977;-78
2022/01/10 00:44:55;;;;;;;17.60;16.20;;;2.40;99.90;;;;;;5083191;28;20478;-78
2022/01/10 00:47:22;;;;;;;18.73;17.03;;;2.40;99.90;;;;;;5074086;28;20524;-78
2022/01/10 00:49:49;;;;;;;18.77;17.10;;;2.40;99.90;;;;;;5082919;28;20464;-79
2022/01/10 00:52:17;;;;;;;19.63;17.93;;;2.40;99.90;;;;;;5065481;28;20475;-78
2022/01/10 00:54:44;;;;;;;18.67;17.07;;;2.40;99.90;;;;;;5073020;28;20453;-80
2022/01/10 00:57:11;;;;;;;18.80;17.30;;;2.40;99.90;;;;;;5081702;28;20518;-78
2022/01/10 00:59:38;;;;;;;17.83;16.43;;;2.40;99.90;;;;;;5072546;28;20833;-80
2022/01/10 01:02:05;;;;;;;20.00;18.30;;;2.40;99.90;;;;;;5070403;28;20471;-79
2022/01/10 01:04:32;;;;;;;20.13;18.33;;;2.40;99.90;;;;;;5082323;28;20508;-80
2022/01/10 01:06:59;;;;;;;19.60;17.93;;;2.40;99.90;;;;;;5074019;28;20486;-78
2022/01/10 01:09:30;;;;;;;18.93;17.23;;;2.40;99.90;;;;;;5073259;28;20956;-79
2022/01/10 01:12:14;;;;;;;18.90;17.20;;;2.40;99.90;;;;;;5074026;28;20465;-79
2022/01/10 01:14:57;;;;;;;19.70;17.57;;;2.40;99.90;;;;;;5084126;28;20491;-80
2022/01/10 01:17:46;;;;;;;19.60;17.67;;;2.40;99.90;;;;;;5080523;28;20470;-80
2022/01/10 01:20:31;;;;;;;18.30;16.93;;;2.40;99.90;;;;;;5075733;28;20501;-79
2022/01/10 01:25:44;;;;;;;19.63;17.90;;;2.40;99.90;;;;;;5061836;28;20488;-79
2022/01/10 01:28:11;;;;;;;18.77;17.27;;;2.40;99.90;;;;;;5073297;28;20429;-79
2022/01/10 01:30:38;;;;;;;19.50;18.03;;;2.40;99.90;;;;;;5073236;28;20532;-79
2022/01/10 01:33:05;;;;;;;20.33;18.30;;;2.40;99.90;;;;;;5073314;28;20433;-80
2022/01/10 01:35:34;;;;;;;19.30;17.70;;;2.40;99.90;;;;;;5072381;28;20447;-79
2022/01/10 01:38:02;;;;;;;19.37;17.43;;;2.40;99.90;;;;;;5071064;28;20444;-79
2022/01/10 01:40:31;;;;;;;19.80;18.07;;;2.40;99.90;;;;;;5073028;28;20561;-79
2022/01/10 01:42:59;;;;;;;19.40;17.70;;;2.50;99.90;;;;;;5079962;28;20438;-79
2022/01/10 01:45:38;;;;;;;18.93;17.40;;;2.40;99.90;;;;;;5072298;28;20472;-78
2022/01/10 01:48:06;;;;;;;18.10;16.60;;;2.50;99.90;;;;;;5081482;28;20429;-78
2022/01/10 01:50:33;;;;;;;18.13;16.73;;;2.40;99.90;;;;;;5080698;28;20785;-79
2022/01/10 01:53:00;;;;;;;18.40;16.77;;;2.40;99.90;;;;;;5074649;28;20499;-80
2022/01/10 01:55:27;;;;;;;18.10;16.57;;;2.40;99.90;;;;;;5070110;28;20454;-79
2022/01/10 01:57:54;;;;;;;19.37;17.67;;;2.40;99.90;;;;;;5074582;28;20447;-80
2022/01/10 02:00:23;;;;;;;18.50;16.80;;;2.40;99.90;;;;;;5072334;28;20444;-78
2022/01/10 02:02:55;;;;;;;18.43;16.67;;;2.50;99.90;;;;;;5078113;28;20471;-79
2022/01/10 02:05:24;;;;;;;18.00;16.60;;;2.50;99.90;;;;;;5074531;28;20467;-80
2022/01/10 02:07:51;;;;;;;19.53;17.83;;;2.50;99.90;;;;;;5071006;28;20442;-78
2022/01/10 02:10:19;;;;;;;19.43;17.83;;;2.50;99.90;;;;;;5074301;28;20512;-79
2022/01/10 02:12:46;;;;;;;18.10;16.60;;;2.50;99.90;;;;;;5071709;28;20521;-79
2022/01/10 02:15:33;;;;;;;19.87;17.83;;;2.50;99.90;;;;;;5077332;28;20440;-78
2022/01/10 02:18:04;;;;;;;18.63;17.03;;;2.50;99.90;;;;;;5074828;28;20524;-77
2022/01/10 02:20:33;;;;;;;18.67;16.97;;;2.50;99.90;;;;;;5069585;28;20507;-80
2022/01/10 02:23:01;;;;;;;19.27;17.77;;;2.50;99.90;;;;;;5072804;28;20543;-79
2022/01/10 02:25:48;;;;;;;18.17;16.47;;;2.60;99.90;;;;;;5078837;28;20524;-79
2022/01/10 02:28:19;;;;;;;19.40;17.53;;;2.60;99.90;;;;;;5073144;28;20910;-78
2022/01/10 02:30:46;;;;;;;19.27;17.50;;;2.60;99.90;;;;;;5084600;28;20457;-80
2022/01/10 02:33:13;;;;;;;18.17;16.67;;;2.60;99.90;;;;;;5075070;28;20444;-80
2022/01/10 02:35:49;;;;;;;18.17;16.73;;;2.70;99.90;;;;;;5069956;28;20518;-79
2022/01/10 02:38:16;;;;;;;18.07;16.60;;;2.70;99.90;;;;;;5078392;28;20437;-79
2022/01/10 02:40:45;;;;;;;19.33;17.80;;;2.70;99.90;;;;;;5070158;28;20493;-79
2022/01/10 02:43:12;;;;;;;19.33;17.73;;;2.70;99.90;;;;;;5071373;28;20441;-79
2022/01/10 02:45:39;;;;;;;19.27;17.67;;;2.70;99.90;;;;;;5083428;28;20468;-79
2022/01/10 02:48:06;;;;;;;19.87;18.27;;;2.70;99.90;;;;;;5072554;28;20865;-79
2022/01/10 02:50:33;;;;;;;20.03;18.33;;;2.70;99.90;;;;;;5073582;28;20480;-79
2022/01/10 02:53:01;;;;;;;19.83;18.13;;;2.70;99.90;;;;;;5070317;28;20539;-79
2022/01/10 02:55:28;;;;;;;21.33;19.13;;;2.70;99.90;;;;;;5066822;28;20462;-80
2022/01/10 02:57:55;;;;;;;20.27;18.47;;;2.60;99.90;;;;;;5071368;28;20506;-79
2022/01/10 03:00:25;;;;;;;20.00;18.40;;;2.60;99.90;;;;;;5073844;28;20447;-79
2022/01/10 03:02:53;;;;;;;20.03;18.43;;;2.60;99.90;;;;;;5069247;28;20449;-79
2022/01/10 03:05:24;;;;;;;20.80;19.00;;;2.50;99.90;;;;;;5077942;28;20439;-78
2022/01/10 03:07:53;;;;;;;20.77;18.73;;;2.60;99.90;;;;;;5075507;28;20459;-78
2022/01/10 03:10:22;;;;;;;20.00;18.30;;;2.50;99.90;;;;;;5068322;28;20460;-78
2022/01/10 03:12:49;;;;;;;21.00;19.17;;;2.60;99.90;;;;;;5069510;28;20453;-79
2022/01/10 03:15:17;;;;;;;20.37;18.47;;;2.60;99.90;;;;;;5071844;28;20488;-78
2022/01/10 03:17:44;;;;;;;20.60;19.00;;;2.60;99.90;;;;;;5069579;28;20452;-78
2022/01/10 03:20:12;;;;;;;20.93;19.10;;;2.60;99.90;;;;;;5070246;28;20462;-79
2022/01/10 03:22:39;;;;;;;19.23;17.53;;;2.60;99.90;;;;;;5082703;28;20432;-78
2022/01/10 03:25:07;;;;;;;20.30;18.60;;;2.60;99.90;;;;;;5072560;28;20447;-80
2022/01/10 03:27:38;;;;;;;20.00;18.10;;;2.60;99.90;;;;;;5068769;28;20210;-80
2022/01/10 03:30:06;;;;;;;19.07;17.37;;;2.60;99.90;;;;;;5071885;28;20974;-78
2022/01/10 03:32:33;;;;;;;19.37;17.87;;;2.70;99.90;;;;;;5072996;28;20443;-79
2022/01/10 03:35:10;;;;;;;19.23;17.57;;;2.70;99.90;;;;;;5068532;28;20503;-82
2022/01/10 03:37:37;;;;;;;20.37;18.50;;;2.70;99.90;;;;;;5055488;28;20995;-78
2022/01/10 03:40:05;;;;;;;20.87;18.73;;;2.70;99.90;;;;;;5080466;28;20430;-78
2022/01/10 03:42:32;;;;;;;20.13;18.47;;;2.70;99.90;;;;;;5068780;28;20525;-78
2022/01/10 03:45:04;;;;;;;19.37;17.97;;;2.70;99.90;;;;;;5056556;28;20446;-81
2022/01/10 03:47:31;;;;;;;18.87;17.27;;;2.70;99.90;;;;;;5056793;28;21040;-80
2022/01/10 03:49:58;;;;;;;18.60;17.20;;;2.70;99.90;;;;;;5067716;28;20502;-79
2022/01/10 03:52:27;;;;;;;20.00;18.40;;;2.80;99.90;;;;;;5058904;28;20554;-84
2022/01/10 03:54:57;;;;;;;19.43;17.80;;;2.80;99.90;;;;;;5052240;28;20869;-82
2022/01/10 03:57:24;;;;;;;20.00;18.40;;;2.80;99.90;;;;;;5067288;28;20437;-83
2022/01/10 03:59:51;;;;;;;18.53;17.07;;;2.70;99.90;;;;;;5071502;28;20453;-82
2022/01/10 04:02:20;;;;;;;21.43;19.30;;;2.80;99.90;;;;;;5077138;28;20490;-82
2022/01/10 04:04:51;;;;;;;20.43;18.57;;;2.70;99.90;;;;;;5062498;28;20449;-82
2022/01/10 04:07:20;;;;;;;21.00;19.00;;;2.80;99.90;;;;;;5067811;28;20508;-84
2022/01/10 04:09:47;;;;;;;19.67;17.97;;;2.70;99.90;;;;;;5060247;28;20443;-77
2022/01/10 04:12:14;;;;;;;20.27;18.43;;;2.70;99.90;;;;;;5061400;28;20668;-79
2022/01/10 04:14:41;;;;;;;20.67;18.40;;;2.70;99.90;;;;;;5063429;28;21018;-80
2022/01/10 04:17:08;;;;;;;21.80;19.77;;;2.70;99.90;;;;;;5062197;28;20445;-83
2022/01/10 04:19:38;;;;;;;21.63;19.93;;;2.70;99.90;;;;;;5077756;28;20449;-84
2022/01/10 04:22:05;;;;;;;19.80;18.20;;;2.70;99.90;;;;;;5076943;28;20765;-80
2022/01/10 04:24:35;;;;;;;20.63;18.67;;;2.60;99.90;;;;;;5069351;28;20440;-80
2022/01/10 04:27:01;;;;;;;21.00;19.17;;;2.70;99.90;;;;;;5068658;28;20469;-80
2022/01/10 04:29:29;;;;;;;20.50;18.53;;;2.70;99.90;;;;;;5073223;28;20445;-78
2022/01/10 04:31:56;;;;;;;21.17;19.17;;;2.70;99.90;;;;;;5067565;28;20468;-80
2022/01/10 04:34:23;;;;;;;21.53;19.67;;;2.70;99.90;;;;;;5067540;28;20528;-80
2022/01/10 04:54:50;;;;;;;19.70;18.10;;;2.70;99.90;;;;;;5033481;28;20527;-79
2022/01/10 04:57:36;;;;;;;19.60;17.90;;;2.70;99.90;;;;;;4989201;28;20940;-79
2022/01/10 05:00:04;;;;;;;19.27;17.63;;;2.70;99.90;;;;;;5004045;28;20524;-81
2022/01/10 05:02:31;;;;;;;19.63;18.03;;;2.70;99.90;;;;;;5040356;28;20446;-80
2022/01/10 05:05:00;;;;;;;20.97;19.27;;;2.70;99.90;;;;;;5069241;28;20899;-80
2022/01/10 05:52:58;;;;;;;20.97;19.17;;;2.90;99.90;;;;;;5092803;22;20518;-77
2022/01/10 05:55:26;;;;;;;21.33;19.53;;;2.90;99.90;;;;;;5061893;28;20479;-77
2022/01/10 05:57:53;;;;;;;21.40;19.53;;;2.90;99.90;;;;;;5066225;28;20451;-77
2022/01/10 06:00:20;;;;;;;21.13;19.43;;;2.90;99.90;;;;;;5066771;28;20444;-77
2022/01/10 06:02:47;;;;;;;20.37;18.67;;;2.90;99.90;;;;;;5071243;28;20457;-77
2022/01/10 06:05:30;;;;;;;20.60;18.90;;;2.80;99.90;;;;;;5060092;28;20456;-77
2022/01/10 06:08:00;;;;;;;20.73;18.93;;;2.90;99.90;;;;;;5060760;28;20978;-77
2022/01/10 06:10:27;;;;;;;19.23;17.73;;;2.90;99.90;;;;;;5053367;28;20441;-77
2022/01/10 06:12:58;;;;;;;18.83;17.33;;;2.90;99.90;;;;;;5062739;28;20463;-77
2022/01/10 06:15:25;;;;;;;19.50;18.03;;;2.90;99.90;;;;;;5065313;28;20538;-77
2022/01/10 06:17:53;;;;;;;20.63;18.77;;;2.90;99.90;;;;;;5060876;28;21071;-77
2022/01/10 06:20:20;;;;;;;21.43;19.50;;;2.90;99.90;;;;;;5058480;28;20516;-77
2022/01/10 06:22:47;;;;;;;20.20;18.50;;;2.80;99.90;;;;;;5058776;28;20529;-77
2022/01/10 06:25:20;;;;;;;19.63;18.03;;;2.80;99.90;;;;;;5052037;28;20437;-76
2022/01/10 06:27:47;;;;;;;20.53;18.70;;;2.80;99.90;;;;;;5055912;28;20877;-77
2022/01/10 06:30:14;;;;;;;20.90;19.07;;;2.80;99.90;;;;;;5066058;28;20445;-78
2022/01/10 06:32:44;;;;;;;20.30;18.60;;;2.80;99.90;;;;;;5062298;28;20468;-77
2022/01/10 06:35:14;;;;;;;20.10;18.50;;;2.80;99.90;;;;;;5060893;28;20481;-77
2022/01/10 06:37:41;;;;;;;20.90;19.17;;;2.80;99.90;;;;;;5060967;28;20543;-77
2022/01/10 06:40:11;;;;;;;22.50;20.47;;;2.80;99.90;;;;;;5065559;28;20453;-78
2022/01/10 06:42:44;;;;;;;22.27;20.47;;;2.90;99.90;;;;;;5058966;28;20507;-77
2022/01/10 06:45:12;;;;;;;22.57;20.63;;;2.90;99.90;;;;;;5063385;28;20458;-77
2022/01/10 06:47:40;;;;;;;20.93;19.20;;;2.90;99.90;;;;;;5073230;28;20510;-77
2022/01/10 06:50:10;;;;;;;21.70;19.80;;;2.80;99.90;;;;;;5068434;28;20459;-77
2022/01/10 06:52:42;;;;;;;21.40;19.60;;;2.90;99.90;;;;;;5065679;28;20472;-77
2022/01/10 06:55:09;;;;;;;20.73;19.10;;;2.90;99.90;;;;;;5074548;28;20538;-77
2022/01/10 06:57:37;;;;;;;22.13;20.03;;;2.90;99.90;;;;;;5067756;28;20817;-76
2022/01/10 07:00:10;;;;;;;21.70;20.00;;;2.90;99.90;;;;;;5060497;28;20453;-77
2022/01/10 07:02:45;;;;;;;22.73;20.90;;;2.90;99.90;;;;;;5062220;28;20487;-76
2022/01/10 07:05:15;;;;;;;21.30;19.50;;;2.90;99.90;;;;;;5066728;28;20451;-77
2022/01/10 07:07:45;;;;;;;21.20;19.40;;;2.80;99.90;;;;;;5069749;28;20307;-76
2022/01/10 07:10:23;;;;;;;20.83;19.23;;;2.80;99.90;;;;;;5069964;28;20205;-77
2022/01/10 07:12:52;;;;;;;20.40;18.60;;;2.70;99.90;;;;;;5065356;28;20989;-77
2022/01/10 07:15:21;;;;;;;20.83;19.10;;;2.70;99.90;;;;;;5064619;28;20455;-76
2022/01/10 07:17:50;;;;;;;22.30;20.57;;;2.70;99.90;;;;;;5056227;28;20789;-77
2022/01/10 07:20:17;;;;;;;21.03;19.33;;;2.70;99.90;;;;;;5070176;28;20552;-77
2022/01/10 07:22:45;;;;;;;22.37;20.37;;;2.70;99.90;;;;;;5066453;28;20468;-76
2022/01/10 07:25:16;;;;;;;22.30;20.40;;;2.70;99.90;;;;;;5067841;28;20459;-77
2022/01/10 07:27:43;;;;;;;21.87;20.17;;;2.70;99.90;;;;;;5062379;28;20480;-76
2022/01/10 07:30:10;;;;;;;21.90;19.87;;;2.70;99.90;;;;;;5061330;28;20441;-77
2022/01/10 07:32:38;;;;;;;21.67;19.97;;;2.80;99.90;;;;;;5073797;28;20461;-77
2022/01/10 07:35:06;;;;;;;22.77;20.70;;;2.80;99.90;;;;;;5073769;28;20499;-77
2022/01/10 07:37:33;;;;;;;22.47;20.67;;;2.80;99.90;;;;;;5073468;28;20948;-77
2022/01/10 07:40:00;;;;;;;22.13;20.13;;;2.80;99.90;;;;;;5066609;28;20445;-77
2022/01/10 07:42:27;;;;;;;22.20;20.03;;;2.90;99.90;;;;;;5062898;28;20544;-76
2022/01/10 07:45:04;;;;;;;21.60;20.00;;;2.90;99.90;;;;;;5064442;28;20893;-77
2022/01/10 07:47:31;;;;;;;22.90;20.87;;;2.90;99.90;;;;;;5073345;28;20481;-76
2022/01/10 07:49:59;;;;;;;21.53;19.83;;;2.90;99.90;;;;;;5073497;28;20434;-76
2022/01/10 07:52:26;;;;;;;22.07;20.27;;;3.00;99.90;;;;;;5073262;28;20468;-77
2022/01/10 07:54:53;;;;;;;22.50;20.43;;;3.00;99.90;;;;;;5062611;28;20453;-76
2022/01/10 07:57:20;;;;;;;21.57;19.80;;;3.00;99.90;;;;;;5073226;28;20468;-77
2022/01/10 07:59:47;;;;;;;22.87;21.03;;;3.00;99.90;;;;;;5068496;28;20440;-77
2022/01/10 08:02:15;;;;;;;21.10;19.40;;;3.00;99.90;;;;;;5073169;28;20464;-76
2022/01/10 08:04:41;;;;;;;22.17;20.20;;;3.00;99.90;;;;;;5073051;28;20537;-77
2022/01/10 08:07:09;;;;;;;21.87;20.07;;;3.00;99.90;;;;;;5062876;28;20890;-77
2022/01/10 08:09:36;;;;;;;21.97;20.17;;;3.00;99.90;;;;;;5067146;28;20577;-77
2022/01/10 08:12:04;;;;;;;21.17;19.37;;;3.00;99.90;;;;;;5072957;28;20879;-76
2022/01/10 08:14:31;;;;;;;21.40;19.50;;;3.10;99.90;;;;;;5072923;28;20973;-76
2022/01/10 08:16:59;;;;;;;21.87;19.87;;;3.10;99.90;;;;;;5072889;28;20444;-77
2022/01/10 08:19:30;;;;;;;22.27;20.43;;;3.10;99.90;;;;;;5072783;28;20497;-77
2022/01/10 08:21:57;;;;;;;21.63;19.73;;;3.20;99.90;;;;;;5059133;28;20477;-77
2022/01/10 08:24:26;;;;;;;21.47;19.67;;;3.20;99.90;;;;;;5060993;28;20244;-77
2022/01/10 08:26:53;;;;;;;21.50;19.63;;;3.30;99.90;;;;;;5061701;28;20448;-77
2022/01/10 08:29:21;;;;;;;22.43;20.70;;;3.20;99.90;;;;;;5064131;28;20444;-77
2022/01/10 08:31:48;;;;;;;22.40;20.40;;;3.20;99.90;;;;;;5068413;28;20526;-77
2022/01/10 08:34:15;;;;;;;21.77;20.07;;;3.20;99.90;;;;;;5072702;28;20492;-77
2022/01/10 08:36:41;;;;;;;21.77;19.90;;;3.20;99.90;;;;;;5071904;28;20515;-76
2022/01/10 08:39:09;;;;;;;21.83;19.90;;;3.20;99.90;;;;;;5072591;28;20648;-77
2022/01/10 08:41:38;;;;;;;21.23;19.50;;;3.20;99.90;;;;;;5072439;28;20449;-77
2022/01/10 08:44:06;;;;;;;21.47;19.67;;;3.30;99.90;;;;;;5072526;28;20194;-76
2022/01/10 08:46:33;;;;;;;21.67;19.87;;;3.30;99.90;;;;;;5072502;28;20482;-77
2022/01/10 08:49:00;;;;;;;21.03;19.07;;;3.40;99.90;;;;;;5072356;28;20504;-77
2022/01/10 08:51:28;;;;;;;21.87;20.00;;;3.50;99.90;;;;;;5071921;28;20272;-76
2022/01/10 08:53:55;;;;;;;21.17;19.43;;;3.50;99.90;;;;;;5072578;28;20194;-77
2022/01/10 08:56:22;;;;;;;21.03;19.43;;;3.60;99.90;;;;;;5072093;28;20209;-77
2022/01/10 08:58:50;;;;;;;21.47;19.67;;;3.70;99.90;;;;;;5072256;28;20199;-77
2022/01/10 09:01:21;;;;;;;21.40;19.57;;;3.70;99.90;;;;;;5072385;28;20230;-76
2022/01/10 09:03:49;;;;;;;20.67;18.90;;;3.80;99.90;;;;;;5072175;28;20672;-77
2022/01/10 09:06:15;;;;;;;20.03;18.43;;;3.90;99.90;;;;;;5072121;28;20286;-77
2022/01/10 09:08:44;;;;;;;21.77;19.63;;;3.90;99.90;;;;;;5069662;28;20699;-77
2022/01/10 09:11:11;;;;;;;20.57;18.67;;;3.90;99.90;;;;;;5070659;28;20218;-76
2022/01/10 09:13:38;;;;;;;20.47;18.53;;;4.00;99.90;;;;;;5071870;28;20460;-77
2022/01/10 09:16:08;;;;;;;19.57;17.90;;;4.00;99.90;;;;;;5070585;28;20245;-76
2022/01/10 09:18:35;;;;;;;21.13;19.33;;;4.00;99.90;;;;;;5062014;28;20244;-77
2022/01/10 09:21:02;;;;;;;20.90;19.10;;;4.00;99.90;;;;;;5071633;28;20289;-77
2022/01/10 09:23:29;;;;;;;24.50;22.33;;;4.00;99.90;;;;;;5062308;28;20248;-77
2022/01/10 09:25:56;;;;;;;22.23;20.20;;;4.10;99.90;;;;;;5071874;28;20198;-77
2022/01/10 09:28:23;;;;;;;12.33;10.10;;;4.10;99.90;;;;;;5062187;28;21074;-78
2022/01/10 09:30:50;;;;;;;14.87;10.93;;;4.20;99.90;;;;;;5064061;28;20867;-76
2022/01/10 09:33:18;;;;;;;15.47;13.90;;;4.30;99.90;;;;;;5071277;28;20202;-77
2022/01/10 09:35:45;;;;;;;14.63;10.90;;;4.30;99.90;;;;;;5071588;28;20218;-77
2022/01/10 09:38:12;;;;;;;15.13;11.53;;;4.40;99.90;;;;;;5071252;28;20276;-76
2022/01/10 09:40:39;;;;;;;16.83;12.93;;;4.50;99.90;;;;;;5071670;28;20663;-77
2022/01/10 09:43:06;;;;;;;19.00;17.00;;;4.50;99.90;;;;;;5067020;28;20614;-77
2022/01/10 09:45:34;;;;;;;21.57;15.60;;;4.50;99.90;;;;;;5071665;28;20241;-77
2022/01/10 09:48:01;;;;;;;20.33;18.40;;;4.50;99.90;;;;;;5071096;28;20560;-77
2022/01/10 09:50:29;;;;;;;22.83;20.73;;;4.50;99.90;;;;;;5067964;28;20205;-76
2022/01/10 09:52:56;;;;;;;20.63;18.70;;;4.70;99.90;;;;;;5071415;28;20699;-77
2022/01/10 09:55:31;;;;;;;24.17;22.17;;;4.80;99.90;;;;;;5071432;28;20264;-77
2022/01/10 09:57:58;;;;;;;13.50;11.40;;;4.90;99.90;;;;;;5057417;28;20693;-77
2022/01/10 10:00:24;;;;;;;13.33;10.37;;;4.90;99.90;;;;;;5071448;28;20191;-77
2022/01/10 10:02:51;;;;;;;22.93;21.17;;;5.00;99.90;;;;;;5071083;28;20241;-77
2022/01/10 10:05:19;;;;;;;21.57;19.77;;;5.00;99.90;;;;;;5071464;28;20268;-77
2022/01/10 10:07:49;;;;;;;22.53;20.37;;;5.00;99.90;;;;;;5058825;28;20206;-77
2022/01/10 10:10:17;;;;;;;22.37;20.53;;;5.00;99.90;;;;;;5063392;28;20205;-76
2022/01/10 10:12:47;;;;;;;22.07;20.07;;;4.90;99.90;;;;;;5065857;28;20577;-76
2022/01/10 10:15:17;;;;;;;23.90;21.50;;;4.80;99.90;;;;;;5065127;28;20206;-77
2022/01/10 10:17:45;;;;;;;22.13;20.20;;;4.70;99.90;;;;;;5070922;28;20197;-77
2022/01/10 10:20:15;;;;;;;23.73;21.43;;;4.70;99.90;;;;;;5059888;28;20195;-77
2022/01/10 10:22:43;;;;;;;22.13;20.17;;;4.70;99.90;;;;;;5074496;28;20222;-77
2022/01/10 10:25:13;;;;;;;22.37;20.00;;;4.60;99.90;;;;;;5067319;28;20240;-76
2022/01/10 10:27:42;;;;;;;22.07;20.07;;;4.60;99.90;;;;;;5074737;28;20187;-77
2022/01/10 10:30:12;;;;;;;23.17;20.93;;;4.70;99.90;;;;;;5070897;28;20199;-77
2022/01/10 10:32:39;;;;;;;22.07;20.07;;;4.80;99.90;;;;;;5068323;28;20219;-77
2022/01/10 10:35:09;;;;;;;21.63;19.50;;;4.80;99.90;;;;;;5074582;28;20194;-77
2022/01/10 10:37:37;;;;;;;20.47;18.77;;;5.00;99.90;;;;;;5074801;28;20186;-77
2022/01/10 10:40:09;;;;;;;16.60;10.93;;;5.10;99.90;;;;;;5074497;28;20241;-77
2022/01/10 10:42:39;;;;;;;15.30;11.07;;;5.10;99.90;;;;;;5063825;28;20225;-77
2022/01/10 10:45:07;;;;;;;12.77;11.47;;;5.20;99.90;;;;;;5074843;28;20199;-77
2022/01/10 10:47:35;;;;;;;25.27;19.30;;;5.30;99.90;;;;;;5073073;28;20207;-77
2022/01/10 10:50:05;;;;;;;21.00;18.83;;;5.20;99.90;;;;;;5072626;28;20285;-77
2022/01/10 10:52:33;;;;;;;18.50;16.13;;;5.10;99.90;;;;;;5057533;28;20226;-77
2022/01/10 10:55:05;;;;;;;23.13;17.33;;;5.20;99.90;;;;;;5069274;28;20194;-77
2022/01/10 10:57:33;;;;;;;13.20;11.70;;;5.20;99.90;;;;;;5066765;28;20210;-77
2022/01/10 11:00:02;;;;;;;17.17;12.53;;;5.20;99.90;;;;;;5074451;28;20278;-77
2022/01/10 11:02:29;;;;;;;17.17;11.53;;;5.20;99.90;;;;;;5066449;28;20703;-77
2022/01/10 11:04:56;;;;;;;22.10;20.00;;;5.30;99.90;;;;;;5072943;28;20655;-76
2022/01/10 11:07:27;;;;;;;23.50;21.33;;;5.40;99.90;;;;;;5074165;28;20203;-77
2022/01/10 11:09:55;;;;;;;24.63;22.43;;;5.20;99.90;;;;;;5074207;28;20694;-77
2022/01/10 11:12:23;;;;;;;23.00;20.53;;;5.20;99.90;;;;;;5065329;28;20275;-77
2022/01/10 11:14:51;;;;;;;22.33;20.20;;;5.10;99.90;;;;;;5068623;28;20202;-77
2022/01/10 11:17:20;;;;;;;22.57;20.40;;;5.10;99.90;;;;;;5073895;28;20202;-77
2022/01/10 11:20:13;;;;;;;23.93;21.40;;;5.10;99.90;;;;;;5074161;28;20652;-77
2022/01/10 11:22:41;;;;;;;22.63;20.73;;;5.20;99.90;;;;;;5075174;28;20214;-76
2022/01/10 11:25:24;;;;;;;22.23;20.37;;;5.10;99.90;;;;;;5067005;28;20282;-77
2022/01/10 11:27:52;;;;;;;24.43;21.93;;;5.10;99.90;;;;;;5058924;28;20195;-77
2022/01/10 11:30:30;;;;;;;25.57;22.97;;;5.10;99.90;;;;;;5071415;28;20207;-77
2022/01/10 11:33:03;;;;;;;23.60;21.20;;;4.90;99.90;;;;;;5066652;28;20230;-77
2022/01/10 11:35:32;;;;;;;23.87;21.60;;;5.00;99.90;;;;;;5073898;28;20202;-76
2022/01/10 11:38:00;;;;;;;24.60;21.43;;;5.10;99.90;;;;;;5073524;28;20203;-77
2022/01/10 11:40:28;;;;;;;22.93;20.60;;;5.00;99.90;;;;;;5073326;28;20195;-77
2022/01/10 11:42:57;;;;;;;22.53;20.27;;;5.10;99.90;;;;;;5061802;28;20317;-77
2022/01/10 11:45:26;;;;;;;24.63;21.80;;;5.10;99.90;;;;;;5073472;28;20686;-77
2022/01/10 11:48:16;;;;;;;23.47;21.37;;;5.10;99.90;;;;;;5073155;28;20240;-77
2022/01/10 11:50:45;;;;;;;23.90;21.10;;;5.10;99.90;;;;;;5057712;28;20734;-77
2022/01/10 11:53:16;;;;;;;23.53;20.53;;;5.00;99.90;;;;;;5074844;28;20201;-77
2022/01/10 11:55:54;;;;;;;21.80;19.63;;;5.10;99.90;;;;;;5066931;28;20203;-77
2022/01/10 11:58:23;;;;;;;23.63;21.17;;;5.10;99.90;;;;;;5073268;28;20611;-77
2022/01/10 12:00:51;;;;;;;24.83;22.37;;;5.10;99.90;;;;;;5062761;28;20203;-77
2022/01/10 12:03:22;;;;;;;23.70;20.60;;;4.90;99.90;;;;;;5060640;28;20660;-78
2022/01/10 12:05:49;;;;;;;24.90;22.60;;;4.90;99.90;;;;;;5061561;28;20199;-77
2022/01/10 12:08:16;;;;;;;22.47;20.27;;;4.90;99.90;;;;;;5072942;28;20218;-79
2022/01/10 12:10:44;;;;;;;23.97;21.40;;;4.80;99.90;;;;;;5073022;28;20197;-77
2022/01/10 12:13:12;;;;;;;23.03;20.87;;;4.80;99.90;;;;;;5072981;28;20191;-77
2022/01/10 12:15:40;;;;;;;21.40;19.47;;;4.80;99.90;;;;;;5064431;28;20203;-78
2022/01/10 12:18:08;;;;;;;22.00;19.57;;;4.90;99.90;;;;;;5066880;28;20327;-77
2022/01/10 12:20:36;;;;;;;20.23;18.30;;;4.80;99.90;;;;;;5060198;28;20202;-77
2022/01/10 12:23:03;;;;;;;22.77;20.27;;;4.90;99.90;;;;;;5072991;28;20274;-79
2022/01/10 12:25:31;;;;;;;21.97;19.77;;;4.90;99.90;;;;;;5062879;28;20203;-77
2022/01/10 12:28:01;;;;;;;22.00;19.87;;;4.80;99.90;;;;;;5072681;28;20191;-77
2022/01/10 12:30:30;;;;;;;20.00;18.20;;;4.90;99.90;;;;;;5072654;28;20210;-77
2022/01/10 12:32:57;;;;;;;19.87;18.10;;;4.90;99.90;;;;;;5064786;28;20223;-78
2022/01/10 12:35:23;;;;;;;20.30;18.47;;;5.00;99.90;;;;;;5072572;28;20191;-77
2022/01/10 12:37:57;;;;;;;19.77;18.07;;;5.00;99.90;;;;;;5061759;28;20202;-78
2022/01/10 12:40:31;;;;;;;21.90;19.77;;;5.10;99.90;;;;;;5072410;28;20241;-77
2022/01/10 12:42:59;;;;;;;21.00;19.03;;;5.00;99.90;;;;;;5072473;28;20213;-77
2022/01/10 12:45:32;;;;;;;21.63;19.50;;;5.10;99.90;;;;;;5062332;28;20614;-79
2022/01/10 12:47:59;;;;;;;21.37;19.37;;;5.00;99.90;;;;;;5072255;28;20605;-77
2022/01/10 12:50:26;;;;;;;20.67;18.77;;;4.90;99.90;;;;;;5072187;28;20206;-77
2022/01/10 12:52:55;;;;;;;20.33;18.43;;;4.80;99.90;;;;;;5063390;28;20237;-77
2022/01/10 12:55:22;;;;;;;20.60;18.50;;;4.80;99.90;;;;;;5072095;28;20224;-79
2022/01/10 12:57:49;;;;;;;20.53;18.67;;;4.90;99.90;;;;;;5071844;28;20542;-77
2022/01/10 13:00:17;;;;;;;19.17;17.47;;;4.90;99.90;;;;;;5072213;28;20217;-77
2022/01/10 13:02:44;;;;;;;21.27;18.80;;;4.90;99.90;;;;;;5066154;28;20214;-77
2022/01/10 13:05:14;;;;;;;20.73;18.73;;;4.90;99.90;;;;;;5072021;28;20550;-77
2022/01/10 13:07:43;;;;;;;18.73;17.17;;;4.90;99.90;;;;;;5068828;28;20256;-78
2022/01/10 13:10:19;;;;;;;19.77;17.93;;;5.00;99.90;;;;;;5071892;28;20218;-78
2022/01/10 13:12:48;;;;;;;18.67;16.80;;;5.10;99.90;;;;;;5072079;28;20216;-78
2022/01/10 13:15:15;;;;;;;23.63;17.63;;;5.10;99.90;;;;;;5071747;28;20199;-77
2022/01/10 13:17:53;;;;;;;19.13;17.17;;;5.00;99.90;;;;;;5061942;28;20302;-78
2022/01/10 13:20:22;;;;;;;20.40;18.30;;;4.90;99.90;;;;;;5071819;28;20713;-77
2022/01/10 13:22:50;;;;;;;18.77;16.93;;;4.80;99.90;;;;;;5071796;28;20612;-77
2022/01/10 13:25:19;;;;;;;18.50;16.70;;;4.90;99.90;;;;;;5071663;28;20674;-77
2022/01/10 13:27:51;;;;;;;18.60;17.00;;;4.80;99.90;;;;;;5059950;28;20198;-78
2022/01/10 13:30:24;;;;;;;19.03;17.17;;;4.80;99.90;;;;;;5063407;28;20218;-77
2022/01/10 13:32:54;;;;;;;18.40;16.90;;;4.70;99.90;;;;;;5066926;28;20629;-77
2022/01/10 13:35:21;;;;;;;19.93;17.93;;;4.70;99.90;;;;;;5071830;28;20241;-77
2022/01/10 13:37:49;;;;;;;20.27;17.30;;;4.70;99.90;;;;;;5065442;28;20252;-78
2022/01/10 13:40:21;;;;;;;19.60;17.67;;;4.80;99.90;;;;;;5072060;28;20591;-77
2022/01/10 13:42:51;;;;;;;18.87;17.27;;;4.80;99.90;;;;;;5061447;28;20652;-77
2022/01/10 13:45:22;;;;;;;19.20;17.47;;;4.80;99.90;;;;;;5071454;28;20660;-77
2022/01/10 13:48:00;;;;;;;18.50;16.67;;;4.90;99.90;;;;;;5059435;28;20580;-77
2022/01/10 13:50:30;;;;;;;18.47;16.60;;;5.00;99.90;;;;;;5071583;28;20304;-77